Terminal Aerodrome Forecast
Issued by NWS

Home | Current Version | Previous Version | Text Only | Print | Product List | Glossary On
Versions: 1 2 3 4 5 6 7 8 9 10 11 12 13 14 15 16
000
FTAK31 PAJN 231139
TAFAKT
TAF
PAKT 231139Z 2312/2412 16007KT P6SM VCSH FEW021 BKN050 OVC060
      WS020/24030KT
     FM231600 16008KT 3SM -SHRA SCT007 BKN015 OVC040
     FM240300 32008KT P6SM VCSH BKN025 OVC040
     FM240900 32005KT P6SM FEW040 SCT080
      AMD LTD TO CLD VIS AND WIND 2312/2315=

USA.gov is the U.S. government's official web portal to all federal, state and local government web resources and services.